Time;durP1;ratioP1;P1;durP2;ratioP2;P2;SDS_P1;SDS_P2;PMS_P1;PMS_P2;Temp;Humidity;BMP_temperature;BMP_pressure;BME280_temperature;BME280_humidity;BME280_pressure;Samples;Min_cycle;Max_cycle;Signal;HPM_P1;HPM_P2
2024/03/11 00:02:00;;;;;;;7.28;6.15;;;19.30;56.50;;;;;;5014106;28;20042;-70
2024/03/11 00:04:26;;;;;;;8.88;6.75;;;19.40;56.50;;;;;;5013277;28;20030;-69
2024/03/11 00:06:51;;;;;;;8.77;6.82;;;19.30;56.50;;;;;;5020312;28;20685;-66
2024/03/11 00:09:20;;;;;;;8.52;6.65;;;19.30;56.50;;;;;;5023750;28;20061;-69
2024/03/11 00:11:55;;;;;;;9.05;6.28;;;19.30;56.40;;;;;;5015355;28;20026;-70
2024/03/11 00:14:28;;;;;;;8.38;6.18;;;19.40;56.50;;;;;;5021231;28;20026;-66
2024/03/11 00:16:58;;;;;;;6.78;5.25;;;19.40;56.50;;;;;;5018746;28;20037;-70
2024/03/11 00:19:25;;;;;;;7.93;6.47;;;19.40;56.50;;;;;;5023773;28;20030;-70
2024/03/11 00:21:55;;;;;;;6.85;6.15;;;19.40;56.50;;;;;;5021168;28;20044;-70
2024/03/11 00:24:22;;;;;;;7.90;6.57;;;19.30;56.50;;;;;;5027683;28;20037;-70
2024/03/11 00:26:48;;;;;;;7.38;6.13;;;19.30;56.40;;;;;;5024148;28;20649;-70
2024/03/11 00:29:14;;;;;;;8.35;6.38;;;19.30;56.50;;;;;;5020062;28;20041;-70
2024/03/11 00:31:39;;;;;;;7.25;5.97;;;19.40;56.50;;;;;;5012209;28;20030;-70
2024/03/11 00:34:05;;;;;;;9.82;5.93;;;19.40;56.50;;;;;;5022914;28;20634;-70
2024/03/11 00:36:31;;;;;;;6.70;5.72;;;19.40;56.50;;;;;;5025637;28;20043;-70
2024/03/11 00:38:57;;;;;;;7.07;6.20;;;19.40;56.50;;;;;;5019673;28;20344;-70
2024/03/11 00:41:23;;;;;;;7.07;5.97;;;19.40;56.50;;;;;;5022282;28;20033;-70
2024/03/11 00:43:50;;;;;;;7.57;6.15;;;19.40;56.50;;;;;;5021725;28;20045;-70
2024/03/11 00:46:16;;;;;;;8.07;6.20;;;19.40;56.50;;;;;;5030279;28;20392;-70
2024/03/11 00:48:43;;;;;;;7.57;5.90;;;19.40;56.50;;;;;;5006777;28;20033;-70
2024/03/11 00:51:09;;;;;;;7.07;5.60;;;19.40;56.50;;;;;;5023420;28;20021;-69
2024/03/11 00:53:35;;;;;;;5.78;5.18;;;19.40;56.40;;;;;;5020730;28;20109;-70
2024/03/11 00:56:01;;;;;;;6.80;5.65;;;19.40;56.50;;;;;;5022233;28;20180;-70
2024/03/11 00:58:28;;;;;;;6.82;5.65;;;19.40;56.50;;;;;;5021001;28;20037;-70
2024/03/11 01:00:55;;;;;;;6.40;5.63;;;19.40;56.50;;;;;;5024534;28;20044;-70
2024/03/11 01:03:22;;;;;;;6.38;5.35;;;19.40;57.10;;;;;;5023086;28;20063;-70
2024/03/11 01:05:49;;;;;;;6.35;5.75;;;19.40;56.50;;;;;;5023201;28;20040;-70
2024/03/11 01:08:16;;;;;;;7.50;5.70;;;19.30;56.50;;;;;;5020435;28;20025;-70
2024/03/11 01:10:42;;;;;;;5.50;5.00;;;19.30;56.50;;;;;;5019986;28;20116;-70
2024/03/11 01:13:07;;;;;;;6.80;5.68;;;19.30;56.60;;;;;;5025679;28;20551;-67
2024/03/11 01:15:33;;;;;;;7.05;5.20;;;19.20;56.60;;;;;;5023086;28;20040;-71
2024/03/11 01:17:58;;;;;;;6.45;5.57;;;19.20;56.80;;;;;;5017468;28;20037;-70
2024/03/11 01:20:24;;;;;;;6.57;5.90;;;19.20;56.80;;;;;;5024910;28;20099;-66
2024/03/11 01:22:51;;;;;;;5.65;5.13;;;19.20;56.90;;;;;;5026523;28;20120;-69
2024/03/11 01:25:20;;;;;;;6.45;5.60;;;19.10;57.00;;;;;;5023640;28;20107;-66
2024/03/11 01:27:45;;;;;;;6.25;5.40;;;19.10;57.00;;;;;;5023576;28;20520;-70
2024/03/11 01:30:11;;;;;;;5.95;5.35;;;19.10;57.10;;;;;;5022975;28;20045;-70
2024/03/11 01:32:39;;;;;;;7.13;4.95;;;19.00;57.10;;;;;;5028640;28;20049;-66
2024/03/11 01:35:04;;;;;;;8.07;6.13;;;19.00;57.20;;;;;;5023017;28;20030;-70
2024/03/11 01:37:30;;;;;;;6.68;5.45;;;19.00;57.20;;;;;;5023830;28;20048;-70
2024/03/11 01:39:55;;;;;;;5.95;5.35;;;19.00;57.30;;;;;;5007258;28;20508;-70
2024/03/11 01:42:21;;;;;;;5.70;5.18;;;19.00;57.30;;;;;;5026163;28;20044;-66
2024/03/11 01:44:49;;;;;;;6.60;5.53;;;19.00;57.30;;;;;;5023529;28;20049;-70
2024/03/11 01:47:15;;;;;;;6.55;4.95;;;18.90;57.20;;;;;;5021668;28;20630;-66
2024/03/11 01:49:43;;;;;;;7.82;6.60;;;19.00;57.20;;;;;;5025132;28;20099;-70
2024/03/11 01:52:12;;;;;;;5.72;5.10;;;19.00;57.10;;;;;;5026910;28;20208;-69
2024/03/11 01:54:38;;;;;;;7.55;5.68;;;19.00;57.10;;;;;;5025057;28;20034;-70
2024/03/11 01:57:08;;;;;;;7.22;5.80;;;19.00;57.10;;;;;;5024691;28;20036;-69
2024/03/11 01:59:35;;;;;;;5.57;5.05;;;19.00;57.00;;;;;;5015757;28;20033;-70
2024/03/11 02:02:02;;;;;;;5.97;5.43;;;19.00;56.90;;;;;;5020926;28;20095;-69
2024/03/11 02:04:28;;;;;;;5.65;5.05;;;19.10;56.90;;;;;;5018119;28;20026;-68
2024/03/11 02:06:55;;;;;;;6.30;5.70;;;19.10;56.90;;;;;;5019522;28;20033;-70
2024/03/11 02:09:21;;;;;;;6.25;5.55;;;19.10;56.80;;;;;;5017938;28;20095;-69
2024/03/11 02:11:47;;;;;;;5.80;5.28;;;19.10;56.80;;;;;;5018374;28;20036;-70
2024/03/11 02:14:13;;;;;;;5.68;5.18;;;19.20;56.80;;;;;;5016610;28;20485;-71
2024/03/11 02:16:39;;;;;;;5.90;5.38;;;19.20;56.80;;;;;;5000602;28;20033;-69
2024/03/11 02:19:06;;;;;;;5.75;5.03;;;19.20;56.70;;;;;;5002721;28;20392;-70
2024/03/11 02:21:32;;;;;;;5.63;4.97;;;19.20;56.70;;;;;;5019337;28;20018;-70
2024/03/11 02:23:58;;;;;;;5.75;5.10;;;19.20;56.60;;;;;;5023390;28;20492;-70
2024/03/11 02:26:24;;;;;;;5.13;4.63;;;19.20;56.60;;;;;;5025506;28;20109;-70
2024/03/11 02:28:49;;;;;;;5.70;5.10;;;19.20;56.60;;;;;;5025801;28;20146;-70
2024/03/11 02:31:15;;;;;;;5.50;5.00;;;19.20;56.50;;;;;;5021544;28;20504;-70
2024/03/11 02:33:40;;;;;;;5.47;4.97;;;19.20;56.50;;;;;;5024572;28;20114;-69
2024/03/11 02:36:06;;;;;;;5.43;4.93;;;19.30;56.50;;;;;;5020013;28;20034;-70
2024/03/11 02:38:32;;;;;;;5.75;5.13;;;19.20;56.50;;;;;;5024628;28;20034;-71
2024/03/11 02:40:58;;;;;;;6.68;5.30;;;19.30;56.50;;;;;;5026736;28;20034;-70
2024/03/11 02:43:26;;;;;;;5.60;5.10;;;19.30;56.50;;;;;;5026837;28;20113;-70
2024/03/11 02:45:52;;;;;;;5.40;4.95;;;19.30;56.50;;;;;;5024346;28;20039;-70
2024/03/11 02:48:17;;;;;;;5.60;5.10;;;19.30;56.40;;;;;;5030745;28;20116;-70
2024/03/11 02:50:43;;;;;;;6.13;4.97;;;19.30;56.40;;;;;;5023912;28;20117;-70
2024/03/11 02:53:08;;;;;;;5.13;4.70;;;19.30;56.40;;;;;;5026282;28;20034;-70
2024/03/11 02:55:34;;;;;;;5.55;5.05;;;19.30;56.40;;;;;;5028233;28;20399;-70
2024/03/11 02:58:00;;;;;;;6.15;5.55;;;19.30;56.40;;;;;;5025662;28;21221;-70
2024/03/11 03:00:25;;;;;;;5.20;4.78;;;19.30;56.40;;;;;;5023551;28;20044;-70
2024/03/11 03:02:51;;;;;;;5.22;4.72;;;19.30;56.40;;;;;;5021730;28;20041;-70
2024/03/11 03:05:17;;;;;;;5.18;4.65;;;19.30;56.30;;;;;;4997298;28;20374;-70
2024/03/11 03:07:42;;;;;;;5.65;5.15;;;19.40;56.40;;;;;;5001439;28;20034;-70
2024/03/11 03:10:10;;;;;;;5.75;5.00;;;19.30;56.30;;;;;;5018706;28;20974;-70
2024/03/11 03:12:35;;;;;;;5.60;5.07;;;19.30;56.40;;;;;;5026183;28;20029;-71
2024/03/11 03:15:03;;;;;;;5.35;4.85;;;19.30;56.40;;;;;;5026247;28;20048;-69
2024/03/11 03:17:28;;;;;;;5.07;4.57;;;19.30;56.40;;;;;;5017015;28;20044;-69
2024/03/11 03:19:55;;;;;;;5.25;4.40;;;19.30;56.40;;;;;;5025592;28;20033;-70
2024/03/11 03:22:21;;;;;;;5.43;4.93;;;19.30;57.00;;;;;;5027495;28;20033;-69
2024/03/11 03:24:47;;;;;;;5.13;4.70;;;19.30;56.50;;;;;;5023388;28;20084;-70
2024/03/11 03:27:12;;;;;;;5.05;4.55;;;19.30;56.50;;;;;;5027118;28;20464;-70
2024/03/11 03:29:40;;;;;;;5.07;4.57;;;19.30;56.50;;;;;;5007993;28;20044;-70
2024/03/11 03:32:12;;;;;;;5.80;5.20;;;19.30;56.50;;;;;;5021562;28;20063;-70
2024/03/11 03:34:37;;;;;;;6.30;5.55;;;19.20;56.50;;;;;;5025559;28;20408;-70
2024/03/11 03:37:03;;;;;;;5.40;4.88;;;19.20;56.50;;;;;;5024317;28;20040;-69
2024/03/11 03:39:28;;;;;;;4.93;4.53;;;19.20;56.60;;;;;;5003988;28;20105;-70
2024/03/11 03:41:55;;;;;;;5.82;4.85;;;19.20;56.60;;;;;;5022752;28;20631;-70
2024/03/11 03:44:21;;;;;;;5.47;4.97;;;19.20;56.60;;;;;;5026976;28;20030;-70
2024/03/11 03:46:47;;;;;;;5.60;5.03;;;19.20;56.60;;;;;;5021569;28;20079;-70
2024/03/11 03:49:12;;;;;;;5.25;4.75;;;19.20;56.60;;;;;;5022037;28;20192;-70
2024/03/11 03:51:38;;;;;;;5.45;4.95;;;19.20;56.60;;;;;;5026111;28;20491;-70
2024/03/11 03:54:03;;;;;;;6.22;5.18;;;19.20;56.70;;;;;;5029025;28;20096;-70
2024/03/11 03:56:30;;;;;;;5.53;4.97;;;19.20;56.70;;;;;;5025576;28;20512;-70
2024/03/11 03:58:56;;;;;;;5.25;4.75;;;19.20;56.70;;;;;;5026018;28;20389;-70
2024/03/11 04:01:23;;;;;;;6.15;5.55;;;19.20;56.70;;;;;;5007385;28;20018;-70
2024/03/11 04:03:48;;;;;;;5.15;4.70;;;19.10;56.70;;;;;;5014414;28;20041;-70
2024/03/11 04:06:14;;;;;;;4.80;4.40;;;19.20;56.70;;;;;;5022106;28;20034;-70
2024/03/11 04:08:40;;;;;;;5.50;5.00;;;19.20;56.80;;;;;;5024283;28;20053;-70
2024/03/11 04:11:06;;;;;;;4.85;4.45;;;19.10;56.70;;;;;;5020656;28;20060;-71
2024/03/11 04:13:31;;;;;;;5.00;4.55;;;19.10;56.70;;;;;;5024593;28;20057;-71
2024/03/11 04:15:57;;;;;;;5.05;4.55;;;19.10;56.70;;;;;;5022940;28;20115;-70
2024/03/11 04:18:25;;;;;;;5.07;4.63;;;19.10;56.80;;;;;;5024536;28;20049;-70
2024/03/11 04:20:55;;;;;;;6.13;5.25;;;19.10;56.70;;;;;;4978490;28;20516;-70
2024/03/11 04:23:26;;;;;;;5.47;4.72;;;19.10;56.70;;;;;;5025740;28;20038;-69
2024/03/11 04:25:51;;;;;;;5.22;4.72;;;19.10;56.70;;;;;;5020370;28;20040;-70
2024/03/11 04:28:18;;;;;;;4.82;4.35;;;19.10;56.70;;;;;;5023233;28;20785;-70
2024/03/11 04:30:47;;;;;;;5.20;4.72;;;19.10;56.70;;;;;;5019754;28;20033;-70
2024/03/11 04:33:16;;;;;;;5.57;5.07;;;19.10;56.80;;;;;;5006673;28;20068;-70
2024/03/11 04:35:43;;;;;;;5.82;4.35;;;19.10;56.80;;;;;;5023545;28;20021;-71
2024/03/11 04:38:09;;;;;;;5.03;4.53;;;19.10;56.80;;;;;;5021398;28;20095;-71
2024/03/11 04:40:37;;;;;;;4.93;4.43;;;19.10;56.70;;;;;;5021731;28;20423;-69
2024/03/11 04:43:03;;;;;;;4.95;4.55;;;19.10;56.70;;;;;;5007963;28;20374;-70
2024/03/11 04:45:30;;;;;;;5.70;5.07;;;19.10;56.70;;;;;;5009341;28;20037;-70
2024/03/11 04:47:59;;;;;;;4.95;4.55;;;19.10;56.70;;;;;;5024301;28;20033;-70
2024/03/11 04:50:27;;;;;;;5.00;4.50;;;19.10;56.70;;;;;;5018171;28;20513;-70
2024/03/11 04:52:55;;;;;;;5.20;4.70;;;19.10;56.90;;;;;;5025616;28;20037;-70
2024/03/11 04:55:21;;;;;;;4.70;4.30;;;19.10;56.70;;;;;;5024806;28;20112;-70
2024/03/11 04:57:47;;;;;;;4.97;4.53;;;19.10;56.80;;;;;;5022359;28;20048;-70
2024/03/11 05:00:13;;;;;;;4.43;4.03;;;19.10;56.70;;;;;;5024084;28;20404;-70
2024/03/11 05:02:39;;;;;;;4.90;4.40;;;19.10;56.70;;;;;;5013662;28;20051;-72
2024/03/11 05:05:09;;;;;;;4.75;4.28;;;19.10;56.70;;;;;;5024845;28;20022;-71
2024/03/11 05:07:36;;;;;;;5.57;4.90;;;19.10;56.70;;;;;;5026598;28;20511;-71
2024/03/11 05:10:02;;;;;;;4.90;4.43;;;19.10;56.70;;;;;;5022642;28;20029;-71
2024/03/11 05:12:28;;;;;;;4.65;4.25;;;19.10;56.70;;;;;;5026360;28;20033;-71
2024/03/11 05:14:54;;;;;;;4.95;4.50;;;19.10;56.70;;;;;;5022637;28;20115;-71
2024/03/11 05:17:19;;;;;;;4.78;4.35;;;19.10;56.60;;;;;;5026708;28;20075;-71
2024/03/11 05:19:46;;;;;;;4.68;4.22;;;19.10;56.60;;;;;;5022558;28;20025;-69
2024/03/11 05:22:12;;;;;;;4.97;4.47;;;19.10;56.60;;;;;;5015513;28;20030;-71
2024/03/11 05:24:38;;;;;;;4.90;4.50;;;19.10;56.60;;;;;;5021767;28;20076;-71
2024/03/11 05:27:05;;;;;;;5.00;4.50;;;19.10;56.60;;;;;;5023578;28;20036;-70
2024/03/11 05:29:32;;;;;;;4.53;4.13;;;19.10;56.60;;;;;;5023083;28;20030;-70
2024/03/11 05:31:58;;;;;;;5.68;3.67;;;19.10;56.60;;;;;;5021306;28;20065;-71
2024/03/11 05:34:24;;;;;;;4.45;4.05;;;19.10;56.60;;;;;;5024927;28;20060;-70
2024/03/11 05:36:49;;;;;;;4.75;4.05;;;19.20;56.60;;;;;;5025173;28;20063;-70
2024/03/11 05:39:15;;;;;;;4.88;4.47;;;19.20;56.60;;;;;;5021372;28;20033;-70
2024/03/11 05:41:43;;;;;;;4.53;4.13;;;19.10;56.60;;;;;;5017575;28;20493;-70
2024/03/11 05:44:09;;;;;;;4.70;4.30;;;19.20;56.60;;;;;;5021212;28;20112;-70
2024/03/11 05:46:34;;;;;;;4.20;3.80;;;19.10;56.50;;;;;;5021669;28;20105;-70
2024/03/11 05:49:00;;;;;;;4.63;4.22;;;19.20;56.60;;;;;;5023072;28;20041;-71
2024/03/11 05:51:28;;;;;;;4.43;4.03;;;19.10;56.50;;;;;;5018699;28;20030;-70
2024/03/11 05:53:56;;;;;;;4.22;3.80;;;19.20;56.50;;;;;;5020427;28;20117;-70
2024/03/11 05:56:22;;;;;;;4.20;3.80;;;19.20;56.50;;;;;;5024410;28;20512;-70
2024/03/11 05:58:49;;;;;;;5.00;4.50;;;19.20;56.50;;;;;;5022644;28;20041;-70
2024/03/11 06:01:14;;;;;;;3.63;3.30;;;19.20;56.50;;;;;;5022124;28;20496;-70
2024/03/11 06:03:40;;;;;;;4.55;3.90;;;19.20;56.50;;;;;;5024081;28;20033;-71
2024/03/11 06:06:06;;;;;;;3.63;3.33;;;19.20;56.50;;;;;;5017470;28;20124;-70
2024/03/11 06:08:31;;;;;;;4.20;3.80;;;19.20;56.50;;;;;;5022365;28;20109;-70
2024/03/11 06:10:57;;;;;;;4.32;3.92;;;19.20;56.40;;;;;;5022508;28;20072;-69
2024/03/11 06:13:22;;;;;;;5.18;3.90;;;19.20;56.40;;;;;;5022046;28;20132;-70
2024/03/11 06:15:48;;;;;;;4.50;3.92;;;19.30;56.40;;;;;;5029454;28;20116;-69
2024/03/11 06:18:13;;;;;;;3.88;3.45;;;19.30;56.40;;;;;;5024121;28;20331;-69
2024/03/11 06:20:42;;;;;;;3.88;3.47;;;19.20;56.30;;;;;;5026871;28;20053;-70
2024/03/11 06:23:07;;;;;;;4.10;3.80;;;19.30;56.40;;;;;;5026253;28;20036;-70
2024/03/11 06:25:33;;;;;;;6.47;3.72;;;19.30;56.30;;;;;;5026777;28;20026;-69
2024/03/11 06:27:58;;;;;;;3.83;3.47;;;19.30;56.30;;;;;;5025853;28;20471;-69
2024/03/11 06:30:24;;;;;;;3.60;3.30;;;19.30;56.30;;;;;;5022723;28;20457;-69
2024/03/11 06:32:50;;;;;;;3.75;3.45;;;19.30;56.20;;;;;;5025856;28;20049;-69
2024/03/11 06:35:16;;;;;;;4.35;3.70;;;19.40;56.20;;;;;;5023870;28;20043;-69
2024/03/11 06:37:45;;;;;;;6.28;3.20;;;19.30;56.10;;;;;;5006847;28;20072;-71
2024/03/11 06:40:12;;;;;;;4.80;3.40;;;19.40;56.10;;;;;;5026096;28;20030;-69
2024/03/11 06:42:38;;;;;;;4.78;3.13;;;19.40;56.10;;;;;;5007022;28;20034;-70
2024/03/11 06:45:05;;;;;;;4.57;3.08;;;19.40;56.10;;;;;;5009430;28;20039;-67
2024/03/11 06:47:30;;;;;;;4.00;3.35;;;19.40;56.10;;;;;;5024950;28;20037;-69
2024/03/11 06:49:56;;;;;;;3.42;3.13;;;19.40;56.10;;;;;;5027498;28;20095;-68
2024/03/11 06:52:23;;;;;;;3.58;3.15;;;19.40;56.10;;;;;;5026187;28;20033;-70
2024/03/11 06:54:49;;;;;;;3.55;3.25;;;19.40;56.10;;;;;;5026681;28;20045;-69
2024/03/11 06:57:14;;;;;;;5.97;3.30;;;19.40;56.10;;;;;;5023850;28;20036;-71
2024/03/11 06:59:40;;;;;;;4.07;3.38;;;19.40;56.10;;;;;;5024596;28;20029;-69
2024/03/11 07:02:06;;;;;;;5.05;3.40;;;19.40;56.20;;;;;;5023287;28;20036;-70
2024/03/11 07:04:31;;;;;;;3.72;3.30;;;19.40;56.10;;;;;;5007150;28;20035;-69
2024/03/11 07:06:59;;;;;;;3.40;3.10;;;19.40;56.10;;;;;;5025889;28;20021;-70
2024/03/11 07:09:25;;;;;;;2.80;2.60;;;19.40;56.10;;;;;;5023939;28;20141;-70
2024/03/11 07:11:51;;;;;;;6.38;2.95;;;19.40;56.10;;;;;;5027758;28;20033;-69
2024/03/11 07:14:16;;;;;;;3.97;3.40;;;19.40;56.10;;;;;;5027625;28;20029;-68
2024/03/11 07:16:42;;;;;;;3.50;3.20;;;19.40;56.10;;;;;;5025304;28;20147;-70
2024/03/11 07:19:09;;;;;;;6.03;3.33;;;19.40;56.10;;;;;;5020423;28;20148;-68
2024/03/11 07:21:35;;;;;;;4.35;3.03;;;19.40;56.10;;;;;;5017403;28;20490;-70
2024/03/11 07:24:01;;;;;;;7.15;3.20;;;19.40;56.10;;;;;;5024423;28;20125;-69
2024/03/11 07:26:26;;;;;;;4.10;3.28;;;19.40;56.10;;;;;;5025572;28;20124;-68
2024/03/11 07:28:52;;;;;;;2.83;2.63;;;19.40;56.10;;;;;;5018398;28;20416;-68
2024/03/11 07:31:18;;;;;;;6.90;2.70;;;19.40;56.20;;;;;;5024507;28;20036;-69
2024/03/11 07:33:48;;;;;;;3.38;2.75;;;19.30;56.70;;;;;;5027055;28;20496;-68
2024/03/11 07:36:15;;;;;;;3.20;2.90;;;19.30;56.10;;;;;;5025521;28;20495;-68
2024/03/11 07:38:46;;;;;;;4.90;3.28;;;19.30;56.20;;;;;;5026940;28;20042;-69
2024/03/11 07:41:12;;;;;;;2.97;2.70;;;19.20;56.10;;;;;;5022595;28;20497;-67
2024/03/11 07:43:38;;;;;;;5.20;2.80;;;19.20;56.10;;;;;;5027273;28;20051;-68
2024/03/11 07:46:04;;;;;;;3.58;2.55;;;19.20;56.30;;;;;;5029101;28;20497;-69
2024/03/11 07:48:30;;;;;;;5.30;3.45;;;19.20;56.30;;;;;;5024759;28;20045;-68
2024/03/11 07:50:56;;;;;;;5.00;2.30;;;19.10;56.20;;;;;;5026584;28;20030;-68
2024/03/11 07:53:21;;;;;;;3.47;3.03;;;19.10;56.40;;;;;;5026636;28;20033;-68
2024/03/11 07:55:47;;;;;;;5.70;2.80;;;19.00;56.40;;;;;;5023410;28;20018;-68
2024/03/11 07:58:14;;;;;;;2.95;2.30;;;19.00;56.50;;;;;;5023274;28;20030;-70
2024/03/11 08:00:39;;;;;;;3.30;2.67;;;19.00;56.70;;;;;;5027402;28;20396;-68
2024/03/11 08:03:05;;;;;;;3.10;2.47;;;19.00;56.70;;;;;;5022437;28;20044;-69
2024/03/11 08:05:31;;;;;;;3.60;2.50;;;19.00;56.70;;;;;;5025496;28;20562;-70
2024/03/11 08:07:59;;;;;;;3.63;2.25;;;19.00;56.80;;;;;;5025531;28;20034;-70
2024/03/11 08:10:28;;;;;;;3.35;2.72;;;19.00;56.90;;;;;;5024369;28;20033;-69
2024/03/11 08:12:53;;;;;;;2.72;2.30;;;19.00;56.80;;;;;;5021669;28;20040;-70
2024/03/11 08:15:20;;;;;;;3.83;2.40;;;19.00;57.50;;;;;;5020790;28;20034;-70
2024/03/11 08:17:51;;;;;;;2.33;2.13;;;19.00;56.80;;;;;;5000329;28;20044;-68
2024/03/11 08:20:20;;;;;;;3.78;2.60;;;19.00;56.90;;;;;;5023138;28;20029;-69
2024/03/11 08:22:47;;;;;;;5.25;2.63;;;19.00;56.90;;;;;;5020899;28;20723;-71
2024/03/11 08:25:15;;;;;;;4.03;2.38;;;19.00;56.90;;;;;;5022236;28;20160;-69
2024/03/11 08:27:41;;;;;;;4.40;2.47;;;19.00;57.30;;;;;;5024651;28;20112;-69
2024/03/11 08:30:09;;;;;;;3.20;2.20;;;19.00;56.90;;;;;;5011116;28;20619;-69
2024/03/11 08:32:41;;;;;;;3.58;2.40;;;19.00;57.00;;;;;;5021454;28;20546;-70
2024/03/11 08:35:07;;;;;;;2.50;2.28;;;19.00;57.00;;;;;;5020946;28;20124;-69
2024/03/11 08:37:32;;;;;;;4.05;2.30;;;18.90;56.90;;;;;;5022974;28;20079;-69
2024/03/11 08:39:58;;;;;;;4.15;2.60;;;18.90;56.90;;;;;;5022463;28;20112;-70
2024/03/11 08:42:24;;;;;;;2.92;2.22;;;19.00;57.00;;;;;;5022828;28;20096;-70
2024/03/11 08:44:51;;;;;;;2.33;1.90;;;18.90;57.00;;;;;;5023550;28;20064;-69
2024/03/11 08:47:17;;;;;;;4.38;1.90;;;18.90;56.90;;;;;;5023397;28;20026;-69
2024/03/11 08:49:46;;;;;;;2.85;2.33;;;18.90;56.90;;;;;;5026551;28;20393;-69
2024/03/11 08:52:13;;;;;;;2.60;2.10;;;18.90;57.00;;;;;;5024498;28;20113;-69
2024/03/11 08:54:43;;;;;;;3.70;2.53;;;18.90;56.90;;;;;;5023079;28;20037;-70
2024/03/11 08:57:09;;;;;;;2.17;1.85;;;18.90;56.90;;;;;;5024356;28;20072;-70
2024/03/11 08:59:38;;;;;;;3.50;2.47;;;18.90;56.90;;;;;;5022019;28;20511;-69
2024/03/11 09:02:07;;;;;;;3.50;1.95;;;18.90;57.00;;;;;;5018667;28;20619;-69
2024/03/11 09:04:33;;;;;;;3.05;1.80;;;18.90;57.00;;;;;;5021030;28;20555;-69
2024/03/11 09:06:58;;;;;;;3.47;2.40;;;18.90;57.00;;;;;;5023007;28;20095;-69
2024/03/11 09:09:24;;;;;;;2.40;2.20;;;18.90;57.00;;;;;;5023643;28;20121;-69
2024/03/11 09:11:57;;;;;;;3.80;1.80;;;18.90;57.00;;;;;;5023282;28;20124;-69
2024/03/11 09:14:26;;;;;;;1.90;1.73;;;18.90;57.10;;;;;;5019802;28;20038;-70
2024/03/11 09:17:01;;;;;;;2.83;2.00;;;18.90;57.00;;;;;;5022019;28;20400;-68
2024/03/11 09:19:30;;;;;;;2.72;1.90;;;18.90;57.00;;;;;;5020906;28;20033;-70
2024/03/11 09:21:56;;;;;;;2.33;2.00;;;18.90;57.00;;;;;;5014339;28;20111;-70
2024/03/11 09:24:22;;;;;;;2.85;1.65;;;18.90;57.00;;;;;;5005072;28;20022;-69
2024/03/11 09:26:49;;;;;;;2.28;1.88;;;18.90;57.00;;;;;;5019849;28;20677;-69
2024/03/11 09:29:19;;;;;;;1.95;1.75;;;18.90;57.00;;;;;;5024606;28;20416;-69
2024/03/11 09:31:48;;;;;;;2.97;2.00;;;18.90;57.00;;;;;;5004511;28;20080;-69
2024/03/11 09:34:17;;;;;;;2.63;2.20;;;18.90;56.90;;;;;;5021163;28;20348;-69
2024/03/11 09:36:43;;;;;;;2.33;1.80;;;19.00;57.20;;;;;;5023059;28;20075;-69
2024/03/11 09:39:11;;;;;;;2.40;1.88;;;19.00;56.90;;;;;;5021699;28;20430;-69
2024/03/11 09:41:42;;;;;;;2.47;1.90;;;19.00;56.80;;;;;;5018234;28;20034;-70
2024/03/11 09:44:15;;;;;;;1.55;1.45;;;19.00;56.90;;;;;;5021203;28;20061;-70
2024/03/11 09:46:42;;;;;;;2.22;1.80;;;19.00;56.90;;;;;;5024129;28;20025;-70
2024/03/11 09:49:08;;;;;;;1.80;1.70;;;19.00;56.80;;;;;;5021114;28;20026;-70
2024/03/11 09:51:34;;;;;;;2.20;1.77;;;19.00;56.70;;;;;;5019773;28;20037;-69
2024/03/11 09:54:02;;;;;;;2.90;1.65;;;19.10;56.60;;;;;;5014407;28;20037;-70
2024/03/11 09:56:27;;;;;;;2.38;1.88;;;19.10;56.60;;;;;;5016789;28;20057;-70
2024/03/11 09:58:56;;;;;;;3.47;1.73;;;19.20;56.60;;;;;;4998852;28;20096;-68
2024/03/11 10:01:30;;;;;;;1.65;1.55;;;19.20;56.50;;;;;;5020141;28;20043;-69
2024/03/11 10:03:58;;;;;;;1.95;1.77;;;19.20;56.40;;;;;;5016617;28;20045;-71
2024/03/11 10:06:24;;;;;;;1.92;1.70;;;19.20;56.30;;;;;;5015920;28;20037;-69
2024/03/11 10:08:50;;;;;;;3.47;1.70;;;19.30;56.30;;;;;;4997902;28;20536;-70
2024/03/11 10:11:28;;;;;;;2.45;1.50;;;19.30;56.30;;;;;;5014003;28;20033;-69
2024/03/11 10:13:56;;;;;;;1.88;1.30;;;19.40;56.30;;;;;;5016458;28;20029;-69
2024/03/11 10:16:26;;;;;;;2.20;1.48;;;19.30;56.30;;;;;;5022149;28;20586;-69
2024/03/11 10:19:05;;;;;;;1.65;1.27;;;19.40;56.20;;;;;;5021535;28;20045;-69
2024/03/11 10:21:35;;;;;;;1.45;1.35;;;19.40;56.10;;;;;;5005570;28;20025;-67
2024/03/11 10:24:01;;;;;;;2.92;1.48;;;19.40;56.00;;;;;;5022893;28;20447;-68
2024/03/11 10:26:30;;;;;;;2.78;1.40;;;19.50;56.00;;;;;;5022504;28;20032;-68
2024/03/11 10:28:56;;;;;;;1.92;1.17;;;19.50;56.20;;;;;;4996995;28;20140;-68
2024/03/11 10:31:31;;;;;;;1.45;1.05;;;19.50;55.90;;;;;;5021801;28;20441;-70
2024/03/11 10:34:13;;;;;;;1.52;1.40;;;19.60;55.90;;;;;;5019604;28;20045;-69
2024/03/11 10:36:46;;;;;;;2.08;1.50;;;19.60;55.80;;;;;;5017316;28;20449;-69
2024/03/11 10:41:49;;;;;;;1.38;1.23;;;19.60;55.70;;;;;;5021938;28;20101;-68
2024/03/11 10:44:16;;;;;;;1.55;1.45;;;19.60;55.70;;;;;;4993244;28;20056;-70
2024/03/11 10:46:42;;;;;;;1.50;1.23;;;19.60;55.70;;;;;;5020204;28;20026;-69
2024/03/11 10:49:12;;;;;;;1.60;1.50;;;19.70;55.70;;;;;;5020166;28;20087;-68
2024/03/11 10:51:44;;;;;;;1.48;1.25;;;19.70;55.60;;;;;;5022214;28;20026;-70
2024/03/11 10:54:12;;;;;;;1.70;1.40;;;19.70;55.60;;;;;;5021564;28;20040;-71
2024/03/11 10:56:40;;;;;;;1.13;1.02;;;19.70;55.60;;;;;;5021219;28;20045;-71
2024/03/11 10:59:14;;;;;;;1.10;0.95;;;19.80;55.60;;;;;;5022851;28;20045;-68
2024/03/11 11:01:44;;;;;;;1.40;1.15;;;19.70;55.60;;;;;;5010413;28;20117;-69
2024/03/11 11:04:14;;;;;;;1.35;1.15;;;19.80;55.60;;;;;;5023976;28;20032;-69
2024/03/11 11:06:49;;;;;;;1.70;1.13;;;19.70;55.50;;;;;;5025572;28;20057;-71
2024/03/11 11:09:15;;;;;;;;;;;19.80;55.50;;;;;;5020909;28;20033;-65
2024/03/11 11:11:49;;;;;;;0.80;0.80;;;19.70;55.50;;;;;;5027120;28;19919;-70
2024/03/11 11:14:18;;;;;;;1.42;1.00;;;19.80;55.50;;;;;;5012219;28;20037;-68
2024/03/11 11:16:45;;;;;;;1.48;1.08;;;19.70;55.60;;;;;;5020976;28;20647;-70
2024/03/11 11:19:17;;;;;;;1.45;0.95;;;19.80;55.50;;;;;;5025433;28;20038;-67
2024/03/11 11:21:43;;;;;;;1.20;1.10;;;19.80;55.60;;;;;;5021728;28;20037;-65
2024/03/11 11:24:29;;;;;;;1.50;1.00;;;19.80;55.60;;;;;;5025154;28;25254;-68
2024/03/11 11:26:56;;;;;;;;;;;19.80;55.60;;;;;;5025140;28;20025;-68
2024/03/11 11:29:24;;;;;;;1.20;0.93;;;19.80;55.70;;;;;;5024700;28;20002;-68
2024/03/11 11:32:18;;;;;;;1.10;0.98;;;19.70;55.60;;;;;;5026969;28;20649;-65
2024/03/11 11:34:46;;;;;;;1.13;1.00;;;19.70;55.60;;;;;;5018952;28;20451;-68
2024/03/11 11:37:30;;;;;;;1.23;1.10;;;19.70;55.70;;;;;;5022833;28;20056;-69
2024/03/11 11:39:56;;;;;;;1.10;1.00;;;19.70;55.70;;;;;;5021601;28;20548;-68
2024/03/11 11:42:41;;;;;;;1.63;1.10;;;19.70;55.70;;;;;;5020105;28;20117;-70
2024/03/11 11:45:11;;;;;;;1.60;1.02;;;19.70;55.70;;;;;;5021219;28;20026;-67
2024/03/11 11:47:40;;;;;;;1.98;1.20;;;19.70;55.80;;;;;;5022210;28;20064;-67
2024/03/11 11:50:30;;;;;;;1.33;1.00;;;19.70;55.80;;;;;;5021262;28;20100;-68
2024/03/11 11:53:03;;;;;;;0.90;0.82;;;19.70;55.80;;;;;;5026647;28;20025;-68
2024/03/11 11:55:29;;;;;;;1.10;1.00;;;19.60;55.80;;;;;;5020993;28;20083;-69
2024/03/11 11:58:07;;;;;;;1.00;0.80;;;19.70;55.90;;;;;;5024045;28;20068;-68
2024/03/11 12:00:35;;;;;;;1.00;0.90;;;19.60;55.90;;;;;;5005219;28;20045;-69
2024/03/11 12:03:04;;;;;;;0.80;0.80;;;19.60;56.00;;;;;;5007675;28;20071;-68
2024/03/11 12:05:31;;;;;;;0.77;0.70;;;19.60;56.00;;;;;;5019068;28;20113;-69
2024/03/11 12:07:56;;;;;;;0.70;0.70;;;19.60;56.00;;;;;;5025101;28;20132;-68
2024/03/11 12:10:23;;;;;;;1.08;0.98;;;19.60;56.10;;;;;;5019275;28;20021;-67
2024/03/11 12:12:49;;;;;;;1.75;0.73;;;19.60;56.20;;;;;;5003592;28;20030;-69
2024/03/11 12:15:21;;;;;;;0.98;0.88;;;19.60;56.10;;;;;;5024794;28;20083;-69
2024/03/11 12:18:00;;;;;;;1.52;0.90;;;19.60;56.10;;;;;;5022513;28;20038;-69
2024/03/11 12:20:30;;;;;;;0.85;0.77;;;19.60;56.20;;;;;;5023153;28;20026;-69
2024/03/11 12:22:57;;;;;;;2.65;1.13;;;19.50;56.20;;;;;;5001953;28;20487;-69
2024/03/11 12:25:23;;;;;;;1.05;0.80;;;19.50;56.30;;;;;;5019521;28;20033;-68
2024/03/11 12:27:53;;;;;;;0.77;0.77;;;19.50;56.20;;;;;;5025905;28;20022;-70
2024/03/11 12:30:19;;;;;;;1.27;0.82;;;19.50;56.20;;;;;;5023719;28;20116;-69
2024/03/11 12:32:56;;;;;;;1.25;0.80;;;19.50;56.20;;;;;;5014029;28;20662;-68
2024/03/11 12:35:25;;;;;;;0.77;0.52;;;19.50;56.30;;;;;;5022473;28;20037;-68
2024/03/11 12:37:51;;;;;;;0.88;0.80;;;19.60;56.30;;;;;;5016408;28;20076;-68
2024/03/11 12:40:19;;;;;;;0.98;0.70;;;19.60;56.30;;;;;;5021281;28;20446;-69
2024/03/11 12:42:48;;;;;;;0.93;0.90;;;19.50;56.20;;;;;;5025784;28;20037;-69
2024/03/11 12:45:15;;;;;;;0.98;0.80;;;19.60;56.30;;;;;;5019160;28;21773;-69
2024/03/11 12:47:44;;;;;;;2.40;0.80;;;19.60;56.30;;;;;;5019641;28;20237;-69
2024/03/11 12:50:13;;;;;;;0.55;0.55;;;19.50;56.20;;;;;;5018815;28;20053;-67
2024/03/11 12:52:40;;;;;;;0.80;0.60;;;19.60;56.30;;;;;;5024502;28;20409;-69